Time;durP1;ratioP1;P1;durP2;ratioP2;P2;SDS_P1;SDS_P2;PMS_P1;PMS_P2;Temp;Humidity;BMP_temperature;BMP_pressure;BME280_temperature;BME280_humidity;BME280_pressure;Samples;Min_cycle;Max_cycle;Signal;HPM_P1;HPM_P2
2024/03/16 00:01:41;;;;;;;35.00;21.40;;;;;;;5.57;75.27;97016.76;107727;1246;98827;-81
2024/03/16 00:04:48;;;;;;;36.60;22.50;;;;;;;5.60;75.25;97016.52;107878;1238;99166;-82
2024/03/16 00:07:55;;;;;;;37.30;21.40;;;;;;;5.63;75.09;97012.98;107679;1241;102601;-84
2024/03/16 00:10:51;;;;;;;77.20;35.30;;;;;;;5.68;75.20;97013.41;107811;1240;101182;-86
2024/03/16 00:13:40;;;;;;;50.80;25.00;;;;;;;5.71;75.06;97009.25;107779;1238;99837;-81
2024/03/16 00:16:32;;;;;;;35.40;20.80;;;;;;;5.74;74.98;97011.43;107787;1243;98780;-79
2024/03/16 00:18:58;;;;;;;30.70;19.10;;;;;;;5.78;74.88;97013.05;107886;1249;98502;-79
2024/03/16 00:21:28;;;;;;;30.80;20.10;;;;;;;5.81;74.90;97013.27;107831;1248;97852;-80
2024/03/16 00:24:15;;;;;;;36.00;20.50;;;;;;;5.85;74.87;97011.00;107822;1239;100364;-84
2024/03/16 00:26:47;;;;;;;31.30;20.20;;;;;;;5.88;74.84;97019.88;107919;1247;98120;-79
2024/03/16 00:29:15;;;;;;;34.20;21.30;;;;;;;5.91;74.82;97018.23;107891;1238;97918;-81
2024/03/16 00:32:10;;;;;;;34.30;21.20;;;;;;;5.95;74.68;97015.45;107821;1238;98706;-81
2024/03/16 00:35:08;;;;;;;32.90;20.00;;;;;;;5.97;74.86;97009.80;107737;1244;103431;-82
2024/03/16 00:37:58;;;;;;;34.00;19.20;;;;;;;5.98;74.84;97010.02;107891;1242;101167;-82
2024/03/16 00:40:58;;;;;;;27.50;15.90;;;;;;;6.00;74.72;97010.36;107725;1235;98781;-84
2024/03/16 00:44:05;;;;;;;27.00;16.60;;;;;;;6.04;74.64;97007.13;107653;1248;97944;-83
2024/03/16 00:47:05;;;;;;;24.30;16.10;;;;;;;6.09;74.59;97001.78;107726;1248;99015;-83
2024/03/16 00:49:52;;;;;;;25.80;16.30;;;;;;;6.16;74.51;96997.63;107773;1238;103532;-84
2024/03/16 00:52:49;;;;;;;23.40;15.80;;;;;;;6.21;74.44;96993.92;107831;1238;99955;-79
2024/03/16 00:55:48;;;;;;;24.60;16.60;;;;;;;6.26;74.26;96991.46;107793;1239;99697;-80
2024/03/16 00:58:27;;;;;;;23.80;15.90;;;;;;;6.32;74.16;96992.16;107892;1249;97962;-80
2024/03/16 01:01:34;;;;;;;20.30;14.80;;;;;;;6.36;73.97;96983.62;107924;1236;98330;-82
2024/03/16 01:04:13;;;;;;;22.00;14.60;;;;;;;6.42;73.85;96984.92;107733;1238;102694;-83
2024/03/16 01:07:20;;;;;;;21.40;14.40;;;;;;;6.46;73.62;96983.11;107751;1235;101841;-82
2024/03/16 01:10:17;;;;;;;20.60;14.90;;;;;;;6.53;73.59;96984.63;107777;1236;98813;-82
2024/03/16 01:13:06;;;;;;;22.00;14.50;;;;;;;6.58;73.44;96978.56;107749;1239;99159;-81
2024/03/16 01:16:12;;;;;;;21.90;15.50;;;;;;;6.62;73.27;96973.64;107746;1247;98717;-83
2024/03/16 01:18:51;;;;;;;23.30;14.10;;;;;;;6.66;73.07;96969.86;107669;1239;103527;-83
2024/03/16 01:21:37;;;;;;;21.00;14.20;;;;;;;6.69;73.06;96963.23;107818;1236;101358;-84
2024/03/16 01:24:11;;;;;;;21.40;14.90;;;;;;;6.72;72.92;96960.83;107815;1247;99746;-84
2024/03/16 01:27:18;;;;;;;21.10;15.10;;;;;;;6.76;72.74;96964.14;107773;1236;97911;-83
2024/03/16 01:30:16;;;;;;;22.10;15.20;;;;;;;6.79;72.74;96959.70;107833;1239;98700;-83
2024/03/16 01:33:13;;;;;;;19.70;13.70;;;;;;;6.83;72.56;96960.80;107777;1248;103822;-82
2024/03/16 01:36:20;;;;;;;21.50;14.00;;;;;;;6.87;72.56;96957.54;107801;1237;101272;-82
2024/03/16 01:38:49;;;;;;;21.50;14.90;;;;;;;6.91;72.44;96957.54;107814;1248;98594;-82
2024/03/16 01:41:41;;;;;;;25.30;15.50;;;;;;;6.92;72.24;96957.70;107841;1239;98012;-82
2024/03/16 01:44:36;;;;;;;27.40;15.90;;;;;;;6.94;72.27;96957.67;107780;1235;99157;-83
2024/03/16 01:47:20;;;;;;;25.60;15.00;;;;;;;6.93;72.18;96956.88;107820;1238;103481;-79
2024/03/16 01:50:20;;;;;;;19.40;13.90;;;;;;;6.91;72.10;96958.06;107810;1238;99976;-84
2024/03/16 01:53:27;;;;;;;20.30;14.30;;;;;;;6.89;71.91;96958.26;107764;1234;99530;-85
2024/03/16 01:56:32;;;;;;;20.70;14.00;;;;;;;6.91;71.85;96961.98;107797;1238;97906;-83
2024/03/16 01:59:39;;;;;;;19.70;12.70;;;;;;;6.91;71.83;96961.78;107809;1243;98421;-83
2024/03/16 02:02:52;;;;;;;22.70;14.40;;;;;;;6.92;71.76;96961.41;107815;1245;101999;-82
2024/03/16 02:05:59;;;;;;;19.80;12.90;;;;;;;6.94;71.63;96963.91;107817;1243;101365;-83
2024/03/16 02:09:10;;;;;;;19.80;13.30;;;;;;;6.96;71.57;96963.02;107811;1239;99865;-82
2024/03/16 02:12:17;;;;;;;18.50;13.30;;;;;;;6.96;71.65;96965.82;107698;1247;98043;-81
2024/03/16 02:15:26;;;;;;;21.40;14.10;;;;;;;6.95;71.72;96965.94;107778;1234;98435;-82
2024/03/16 02:18:33;;;;;;;18.30;13.40;;;;;;;6.95;71.64;96969.83;107824;1238;103452;-82
2024/03/16 02:21:40;;;;;;;23.00;14.20;;;;;;;6.98;71.57;96964.89;107811;1244;100247;-84
2024/03/16 02:24:47;;;;;;;22.10;15.00;;;;;;;7.00;71.62;96964.21;107819;1247;99594;-82
2024/03/16 02:27:54;;;;;;;21.90;14.70;;;;;;;7.04;71.36;96963.16;107783;1236;98121;-85
2024/03/16 02:30:43;;;;;;;28.40;14.10;;;;;;;7.07;71.14;96964.75;107784;1242;98377;-82
2024/03/16 02:33:49;;;;;;;20.80;14.40;;;;;;;7.07;71.18;96959.92;107818;1238;103460;-84
2024/03/16 02:36:32;;;;;;;22.00;15.10;;;;;;;7.06;71.19;96962.31;107850;1248;101149;-84
2024/03/16 02:39:31;;;;;;;22.30;14.30;;;;;;;7.06;71.18;96965.04;107786;1241;99586;-82
2024/03/16 02:42:41;;;;;;;25.10;15.40;;;;;;;7.05;71.22;96962.76;107772;1248;97916;-84
2024/03/16 02:45:48;;;;;;;22.60;14.30;;;;;;;7.06;71.20;96965.77;107827;1248;98449;-83
2024/03/16 02:48:45;;;;;;;21.30;14.20;;;;;;;7.05;71.14;96965.73;107820;1241;103405;-82
2024/03/16 02:51:43;;;;;;;25.70;15.00;;;;;;;7.04;71.08;96964.90;103873;1239;5447372;-80
2024/03/16 02:54:49;;;;;;;18.70;13.70;;;;;;;7.04;71.26;96964.73;107862;1238;99156;-79
2024/03/16 02:57:38;;;;;;;18.00;13.40;;;;;;;7.03;71.28;96969.02;107908;1241;98344;-79
2024/03/16 03:00:27;;;;;;;17.70;13.60;;;;;;;7.00;71.17;96971.29;107916;1238;103546;-79
2024/03/16 03:03:12;;;;;;;20.00;14.20;;;;;;;7.00;71.24;96973.67;107837;1238;101213;-84
2024/03/16 03:06:20;;;;;;;22.20;14.20;;;;;;;7.01;71.38;96973.42;107616;1236;99163;-82
2024/03/16 03:09:26;;;;;;;18.60;13.70;;;;;;;7.01;71.39;96970.98;107515;1239;97961;-85
2024/03/16 03:12:28;;;;;;;18.80;13.00;;;;;;;7.03;71.32;96971.36;107809;1238;97922;-83
2024/03/16 03:15:03;;;;;;;22.00;13.40;;;;;;;7.03;71.28;96971.66;107752;1248;102508;-85
2024/03/16 03:18:10;;;;;;;19.30;13.00;;;;;;;7.02;71.24;96970.91;107804;1238;101195;-82
2024/03/16 03:21:17;;;;;;;20.70;13.40;;;;;;;7.02;71.27;96973.67;107842;1238;99557;-83
2024/03/16 03:24:20;;;;;;;18.30;12.80;;;;;;;7.03;71.30;96975.33;107759;1235;98012;-79
2024/03/16 03:27:07;;;;;;;17.70;12.60;;;;;;;7.04;71.24;96976.02;107761;1237;98429;-83
2024/03/16 03:30:13;;;;;;;20.80;13.20;;;;;;;7.05;71.11;96975.85;107800;1241;102060;-84
2024/03/16 03:33:12;;;;;;;21.70;13.30;;;;;;;7.07;71.18;96976.73;107727;1239;101339;-81
2024/03/16 03:36:19;;;;;;;21.00;13.50;;;;;;;7.08;71.15;96973.92;107818;1235;99524;-81
2024/03/16 03:39:25;;;;;;;19.40;13.10;;;;;;;7.08;71.11;96972.94;107808;1238;97887;-83
2024/03/16 03:42:34;;;;;;;16.90;13.00;;;;;;;7.10;70.98;96972.86;107841;1238;97889;-82
2024/03/16 03:45:49;;;;;;;19.40;13.10;;;;;;;7.13;70.85;96974.52;107796;1239;103456;-82
2024/03/16 03:48:59;;;;;;;19.10;13.70;;;;;;;7.13;70.88;96974.43;107833;1239;100936;-82
2024/03/16 03:52:06;;;;;;;19.30;13.00;;;;;;;7.14;70.99;96976.49;107768;1242;98855;-83
2024/03/16 03:55:13;;;;;;;17.50;12.40;;;;;;;7.12;70.91;96973.16;107787;1247;99141;-82
2024/03/16 03:58:20;;;;;;;19.20;13.40;;;;;;;7.07;70.90;96974.54;107835;1238;97900;-83
2024/03/16 04:01:12;;;;;;;21.50;14.60;;;;;;;7.05;70.97;96980.02;107759;1238;103527;-80
2024/03/16 04:04:02;;;;;;;23.00;14.90;;;;;;;6.99;71.06;96978.10;107823;1238;100784;-83
2024/03/16 04:07:08;;;;;;;22.80;14.60;;;;;;;6.93;71.13;96975.45;107739;1236;99003;-79
2024/03/16 04:10:05;;;;;;;19.50;13.40;;;;;;;6.93;71.13;96971.95;107766;1238;99229;-81
2024/03/16 04:12:55;;;;;;;18.70;13.60;;;;;;;6.93;71.15;96972.32;107822;1236;99057;-82
2024/03/16 04:15:49;;;;;;;19.10;13.10;;;;;;;6.95;71.17;96971.17;107718;1243;111128;-82
2024/03/16 04:18:56;;;;;;;18.60;12.90;;;;;;;6.91;71.06;96971.08;107851;1239;101178;-83
2024/03/16 04:21:33;;;;;;;21.80;14.80;;;;;;;6.84;71.11;96974.55;107800;1238;98888;-78
2024/03/16 04:24:25;;;;;;;24.60;15.70;;;;;;;6.78;71.37;96980.48;107739;1238;99099;-81
2024/03/16 04:27:11;;;;;;;26.00;17.20;;;;;;;6.73;71.52;96980.77;107738;1235;97984;-79
2024/03/16 04:30:16;;;;;;;30.30;18.50;;;;;;;6.69;71.72;96980.56;107812;1247;103575;-80
2024/03/16 04:33:23;;;;;;;26.40;17.30;;;;;;;6.64;71.84;96977.65;107839;1238;100255;-83
2024/03/16 04:36:31;;;;;;;26.40;18.10;;;;;;;6.64;71.99;96977.06;107673;1238;99829;-83
2024/03/16 04:39:23;;;;;;;21.50;16.00;;;;;;;6.63;71.92;96977.65;107805;1238;97891;-82
2024/03/16 04:41:58;;;;;;;27.20;17.60;;;;;;;6.60;72.00;96974.58;107522;1238;97978;-82
2024/03/16 04:45:05;;;;;;;21.80;15.70;;;;;;;6.57;71.94;96975.38;107807;1238;102578;-81
2024/03/16 04:48:13;;;;;;;23.90;16.80;;;;;;;6.54;72.10;96975.35;107776;1238;103016;-82
2024/03/16 04:51:00;;;;;;;21.70;15.90;;;;;;;6.49;72.13;96973.27;107841;1247;99866;-82
2024/03/16 04:53:49;;;;;;;21.90;14.90;;;;;;;6.40;72.21;96974.23;107829;1248;97891;-81
2024/03/16 04:56:29;;;;;;;23.30;14.60;;;;;;;6.38;72.40;96978.68;107825;1239;98448;-83
2024/03/16 04:59:28;;;;;;;21.50;14.10;;;;;;;6.35;72.52;96980.52;107831;1238;103579;-85
2024/03/16 05:02:25;;;;;;;17.20;12.50;;;;;;;6.32;72.45;96982.63;107752;1238;100245;-83
2024/03/16 05:05:15;;;;;;;16.30;11.40;;;;;;;6.34;72.62;96984.95;107771;1235;99879;-83
2024/03/16 05:08:22;;;;;;;16.10;11.70;;;;;;;6.36;72.82;96983.91;107787;1239;97910;-82
2024/03/16 05:11:09;;;;;;;16.80;12.10;;;;;;;6.39;73.00;96988.59;107811;1249;99043;-83
2024/03/16 05:14:06;;;;;;;20.40;12.00;;;;;;;6.38;73.12;96985.98;107799;1239;103391;-82
2024/03/16 05:17:13;;;;;;;15.70;12.00;;;;;;;6.39;73.11;96986.28;107842;1248;100940;-79
2024/03/16 05:20:21;;;;;;;16.60;12.60;;;;;;;6.41;73.24;96987.55;107816;1238;99435;-84
2024/03/16 05:23:19;;;;;;;17.70;12.00;;;;;;;6.43;73.26;96984.30;107829;1236;97992;-82
2024/03/16 05:26:19;;;;;;;16.50;11.10;;;;;;;6.43;73.35;96992.02;107818;1243;98346;-82
2024/03/16 05:29:26;;;;;;;20.30;12.20;;;;;;;6.45;73.51;96992.55;107835;1238;102537;-81
2024/03/16 05:32:16;;;;;;;16.60;12.20;;;;;;;6.48;73.84;96992.87;107712;1239;101434;-84
2024/03/16 05:34:52;;;;;;;18.10;12.10;;;;;;;6.46;74.09;96992.84;107725;1239;99877;-82
2024/03/16 05:37:50;;;;;;;16.00;12.00;;;;;;;6.45;74.15;96989.44;107844;1238;99128;-79
2024/03/16 05:40:49;;;;;;;22.80;13.30;;;;;;;6.48;74.32;96991.90;107791;1238;98358;-82
2024/03/16 05:43:28;;;;;;;17.10;11.80;;;;;;;6.49;74.78;96995.88;107778;1238;103409;-82
2024/03/16 05:46:27;;;;;;;26.70;12.80;;;;;;;6.49;75.19;96999.76;107814;1238;101443;-80
2024/03/16 05:49:34;;;;;;;22.30;13.20;;;;;;;6.50;75.52;96993.70;107806;1238;98874;-79
2024/03/16 05:52:40;;;;;;;22.70;13.60;;;;;;;6.52;75.72;96995.64;107901;1238;97987;-79
2024/03/16 05:55:40;;;;;;;29.60;15.20;;;;;;;6.55;76.15;96989.42;107736;1235;99253;-78
2024/03/16 05:58:09;;;;;;;24.00;15.90;;;;;;;6.56;76.43;96992.11;107819;1239;103325;-83
2024/03/16 06:01:06;;;;;;;25.10;16.90;;;;;;;6.59;76.48;96991.86;107827;1238;101493;-82
2024/03/16 06:03:53;;;;;;;26.10;17.90;;;;;;;6.66;76.59;96995.65;107781;1240;98862;-84
2024/03/16 06:06:32;;;;;;;28.60;18.70;;;;;;;6.71;76.74;96996.35;107779;1239;97913;-83
2024/03/16 06:09:22;;;;;;;25.50;19.00;;;;;;;6.78;76.79;96997.29;107818;1248;97833;-83
2024/03/16 06:12:21;;;;;;;25.20;18.10;;;;;;;6.86;76.77;96999.95;107762;1238;103517;-82
2024/03/16 06:15:29;;;;;;;23.70;16.40;;;;;;;6.95;77.05;97002.02;107773;1238;101641;-80
2024/03/16 06:18:29;;;;;;;21.40;16.40;;;;;;;7.04;77.38;96999.86;107816;1248;99640;-78
2024/03/16 06:21:36;;;;;;;25.70;18.60;;;;;;;7.11;77.72;97002.10;107797;1238;98382;-81
2024/03/16 06:24:43;;;;;;;24.10;16.50;;;;;;;7.19;77.55;97003.17;107769;1237;98473;-79
2024/03/16 06:27:49;;;;;;;23.30;15.60;;;;;;;7.27;77.56;97005.52;107783;1238;103701;-79
2024/03/16 06:30:35;;;;;;;23.00;16.40;;;;;;;7.38;77.44;97009.31;107770;1244;101178;-79
2024/03/16 06:33:45;;;;;;;24.30;16.60;;;;;;;7.47;77.30;97010.47;107791;1239;100059;-78
2024/03/16 06:36:35;;;;;;;26.50;17.20;;;;;;;7.56;77.16;97013.39;107706;1238;99079;-84
2024/03/16 06:39:35;;;;;;;32.40;22.20;;;;;;;7.65;77.14;97014.32;107791;1243;98546;-81
2024/03/16 06:42:42;;;;;;;31.20;23.40;;;;;;;7.74;76.91;97011.52;107859;1239;102490;-81
2024/03/16 06:45:47;;;;;;;28.60;21.30;;;;;;;7.83;76.63;97013.00;107721;1236;101216;-81
2024/03/16 06:48:54;;;;;;;26.40;19.80;;;;;;;7.93;76.51;97018.52;107759;1236;98975;-83
2024/03/16 06:52:01;;;;;;;30.90;20.80;;;;;;;8.03;76.63;97021.86;107710;1248;97916;-83
2024/03/16 06:54:57;;;;;;;20.90;15.50;;;;;;;8.11;76.36;97027.15;107803;1249;98531;-80
2024/03/16 06:57:31;;;;;;;22.80;15.30;;;;;;;8.19;75.95;97028.41;107818;1237;103205;-80
2024/03/16 07:00:24;;;;;;;21.60;17.00;;;;;;;8.27;75.91;97031.05;107831;1248;101235;-80
2024/03/16 07:02:56;;;;;;;27.70;20.80;;;;;;;8.35;76.10;97031.98;107759;1249;99812;-77
2024/03/16 07:06:04;;;;;;;28.40;19.50;;;;;;;8.41;76.05;97034.63;107909;1236;97970;-77
2024/03/16 07:09:08;;;;;;;21.10;16.20;;;;;;;8.47;75.76;97040.48;107795;1244;98441;-78
2024/03/16 07:12:08;;;;;;;23.70;17.20;;;;;;;8.53;75.49;97043.27;107788;1236;103698;-78
2024/03/16 07:14:56;;;;;;;24.70;16.90;;;;;;;8.59;75.51;97045.36;107656;1245;101201;-82
2024/03/16 07:18:03;;;;;;;26.40;18.00;;;;;;;8.67;75.66;97047.12;107747;1235;99705;-83
2024/03/16 07:20:33;;;;;;;24.60;14.60;;;;;;;8.72;75.42;97049.08;107699;1241;97993;-82
2024/03/16 07:23:06;;;;;;;20.70;15.20;;;;;;;8.77;75.11;97051.95;107818;1238;98421;-82
2024/03/16 07:25:58;;;;;;;23.00;15.00;;;;;;;8.82;74.70;97053.75;107828;1238;102467;-83
2024/03/16 07:28:47;;;;;;;18.60;13.20;;;;;;;8.88;73.63;97051.67;107824;1236;101234;-83
2024/03/16 07:31:54;;;;;;;20.30;14.60;;;;;;;8.95;73.64;97054.39;107773;1238;99830;-83
2024/03/16 07:34:34;;;;;;;30.40;23.20;;;;;;;9.02;73.86;97055.43;107628;1235;97986;-82
2024/03/16 07:37:23;;;;;;;32.40;22.90;;;;;;;9.09;73.27;97056.38;107747;1238;98430;-83
2024/03/16 07:40:21;;;;;;;29.50;21.50;;;;;;;9.14;72.91;97053.51;107823;1242;102956;-83
2024/03/16 07:43:28;;;;;;;24.50;17.80;;;;;;;9.21;72.67;97058.87;107837;1238;101044;-83
2024/03/16 07:46:35;;;;;;;19.00;15.00;;;;;;;9.27;72.49;97061.39;107648;1236;107160;-84
2024/03/16 07:49:42;;;;;;;26.00;16.40;;;;;;;9.32;72.01;97057.75;107741;1238;97968;-81
2024/03/16 07:52:49;;;;;;;22.30;15.70;;;;;;;9.38;71.97;97060.15;107819;1238;98486;-82
2024/03/16 07:55:39;;;;;;;22.50;15.50;;;;;;;9.47;72.00;97063.14;107759;1238;102530;-84
2024/03/16 07:58:46;;;;;;;21.10;14.60;;;;;;;9.53;72.16;97061.13;107784;1238;101225;-83
2024/03/16 08:01:53;;;;;;;19.50;13.20;;;;;;;9.59;71.65;97068.61;107800;1241;99782;-82
2024/03/16 08:04:50;;;;;;;20.00;13.80;;;;;;;9.65;71.21;97066.38;107775;1239;98286;-82
2024/03/16 08:07:57;;;;;;;20.10;14.00;;;;;;;9.72;71.54;97065.65;107711;1238;98445;-83
2024/03/16 08:11:04;;;;;;;19.70;13.80;;;;;;;9.79;71.86;97065.45;107785;1239;113268;-82
2024/03/16 08:13:45;;;;;;;18.30;14.00;;;;;;;9.82;71.15;97062.16;107865;1238;101251;-77
2024/03/16 08:16:16;;;;;;;22.30;15.10;;;;;;;9.85;70.98;97059.91;107795;1248;99618;-77
2024/03/16 08:19:23;;;;;;;19.70;13.50;;;;;;;9.88;70.86;97059.70;107754;1238;99237;-78
2024/03/16 08:22:31;;;;;;;19.00;13.30;;;;;;;9.93;70.89;97053.23;107692;1241;98346;-78
2024/03/16 08:25:16;;;;;;;18.80;14.10;;;;;;;9.98;70.76;97052.17;107777;1239;103136;-79
2024/03/16 08:28:21;;;;;;;16.30;12.80;;;;;;;10.02;70.49;97044.14;107765;1238;101008;-78
2024/03/16 08:31:19;;;;;;;23.30;14.40;;;;;;;10.10;70.41;97040.64;107756;1248;98931;-82
2024/03/16 08:34:14;;;;;;;21.50;14.50;;;;;;;10.21;70.75;97044.92;107713;1242;98448;-81
2024/03/16 08:36:49;;;;;;;21.90;14.60;;;;;;;10.30;70.83;97046.69;107831;1239;99294;-82
2024/03/16 08:39:26;;;;;;;19.90;14.10;;;;;;;10.38;70.31;97049.40;107851;1238;102108;-82
2024/03/16 08:42:26;;;;;;;20.60;14.60;;;;;;;10.44;69.70;97051.86;107773;1240;100090;-82
2024/03/16 08:45:24;;;;;;;21.00;16.00;;;;;;;10.49;69.58;97051.48;107809;1241;97973;-82
2024/03/16 08:47:53;;;;;;;21.50;15.30;;;;;;;10.55;69.46;97053.23;107715;1241;98044;-83
2024/03/16 08:50:42;;;;;;;19.80;14.80;;;;;;;10.58;69.46;97051.25;107817;1239;98419;-78
2024/03/16 08:53:39;;;;;;;21.70;14.50;;;;;;;10.62;69.51;97053.48;107719;1238;101952;-78
2024/03/16 08:56:46;;;;;;;18.30;13.60;;;;;;;10.65;69.61;97050.52;107742;1250;100284;-81
2024/03/16 08:59:38;;;;;;;21.80;15.60;;;;;;;10.67;69.53;97049.85;107899;1237;100018;-78
2024/03/16 09:02:45;;;;;;;22.60;15.90;;;;;;;10.68;69.67;97053.40;107710;1249;99015;-83
2024/03/16 09:05:52;;;;;;;22.60;14.60;;;;;;;10.68;69.65;97057.73;107601;1248;98425;-82
2024/03/16 09:08:44;;;;;;;19.80;14.70;;;;;;;10.68;69.66;97057.06;107785;1247;103430;-78
2024/03/16 09:11:51;;;;;;;22.00;15.00;;;;;;;10.68;69.48;97059.77;107547;1248;100059;-80
2024/03/16 09:14:58;;;;;;;19.90;14.90;;;;;;;10.67;69.48;97059.10;107595;1236;100083;-82
2024/03/16 09:18:04;;;;;;;20.60;15.10;;;;;;;10.66;69.70;97061.11;107661;1238;99099;-80
2024/03/16 09:21:11;;;;;;;21.50;15.60;;;;;;;10.65;69.84;97069.92;107739;1248;98526;-80
2024/03/16 09:24:09;;;;;;;25.00;16.50;;;;;;;10.62;70.11;97075.60;107743;1239;102231;-78
2024/03/16 09:27:06;;;;;;;23.20;16.60;;;;;;;10.57;70.74;97083.20;107652;1242;101180;-81
2024/03/16 09:30:16;;;;;;;22.80;16.70;;;;;;;10.50;71.41;97084.85;107644;1246;106709;-78
2024/03/16 09:33:08;;;;;;;23.30;16.40;;;;;;;10.42;72.03;97085.95;107594;1239;97865;-79
2024/03/16 09:36:15;;;;;;;22.40;16.00;;;;;;;10.37;72.18;97088.45;107774;1248;99133;-79
2024/03/16 09:39:26;;;;;;;24.00;16.50;;;;;;;10.38;72.68;97091.80;107773;1248;103377;-79
2024/03/16 09:42:23;;;;;;;21.50;16.40;;;;;;;10.40;73.09;97091.10;107765;1242;101309;-79
2024/03/16 09:45:10;;;;;;;23.30;17.50;;;;;;;10.39;73.50;97093.14;107762;1248;99869;-80
2024/03/16 09:48:17;;;;;;;26.80;18.80;;;;;;;10.40;73.95;97098.49;107767;1248;97971;-78
2024/03/16 09:51:24;;;;;;;31.90;19.30;;;;;;;10.40;73.80;97096.91;107765;1238;99463;-77
2024/03/16 09:54:15;;;;;;;27.50;20.10;;;;;;;10.42;74.14;97098.52;107795;1247;102474;-77
2024/03/16 09:57:09;;;;;;;30.00;21.20;;;;;;;10.44;74.32;97103.08;107822;1248;101099;-76
2024/03/16 09:59:36;;;;;;;33.60;20.30;;;;;;;10.46;74.67;97102.50;107764;1245;99895;-78
2024/03/16 10:02:43;;;;;;;28.20;19.20;;;;;;;10.47;74.68;97103.23;107753;1238;97993;-78
2024/03/16 10:05:52;;;;;;;27.00;19.60;;;;;;;10.45;74.77;97105.45;107777;1240;99492;-78
2024/03/16 10:09:00;;;;;;;28.50;19.60;;;;;;;10.42;74.92;97112.77;107473;1247;103202;-85
2024/03/16 10:11:39;;;;;;;27.60;20.40;;;;;;;10.40;75.36;97110.16;107640;1239;101230;-82
2024/03/16 10:14:47;;;;;;;22.50;16.00;;;;;;;10.39;75.70;97107.64;107742;1249;99918;-82
2024/03/16 10:17:54;;;;;;;24.20;16.00;;;;;;;10.34;75.82;97109.26;107764;1239;97897;-81
2024/03/16 10:21:01;;;;;;;21.10;15.80;;;;;;;10.31;76.00;97109.52;107776;1248;99103;-82
2024/03/16 10:24:08;;;;;;;23.00;16.70;;;;;;;10.33;76.23;97111.58;107791;1239;103297;-82
2024/03/16 10:27:00;;;;;;;22.00;16.50;;;;;;;10.32;76.52;97109.63;107734;1235;100986;-80
2024/03/16 10:29:49;;;;;;;21.50;15.30;;;;;;;10.31;76.87;97111.96;107280;1250;100084;-81
2024/03/16 10:32:41;;;;;;;23.30;17.20;;;;;;;10.23;76.95;97110.93;107260;1243;98301;-81
2024/03/16 10:35:39;;;;;;;22.10;16.30;;;;;;;10.17;77.38;97108.95;107417;1242;98413;-81
2024/03/16 10:38:30;;;;;;;21.90;16.60;;;;;;;10.13;77.52;97108.24;107306;1248;103421;-81
2024/03/16 10:41:20;;;;;;;21.20;16.40;;;;;;;10.10;77.70;97104.09;106935;1246;101366;-81
2024/03/16 10:44:27;;;;;;;22.30;15.80;;;;;;;10.07;77.96;97100.61;106763;1259;99234;-79
2024/03/16 10:47:34;;;;;;;25.70;15.80;;;;;;;10.05;77.79;97099.84;106754;1248;97909;-81
2024/03/16 10:50:43;;;;;;;23.90;18.00;;;;;;;10.09;78.23;97095.67;106831;1249;98553;-81
2024/03/16 10:53:50;;;;;;;27.70;18.80;;;;;;;10.17;78.64;97096.71;106867;1251;103463;-83
2024/03/16 10:56:57;;;;;;;26.60;18.30;;;;;;;10.29;79.03;97098.61;106832;1246;100287;-82
2024/03/16 11:00:13;;;;;;;23.10;15.90;;;;;;;10.41;79.01;97095.21;106793;1246;100003;-82
2024/03/16 11:03:29;;;;;;;23.80;16.00;;;;;;;10.58;79.24;97093.77;106707;1259;97985;-78
2024/03/16 11:06:42;;;;;;;26.40;19.60;;;;;;;10.77;79.43;97087.35;106816;1254;98766;-86
2024/03/16 11:09:48;;;;;;;23.50;18.00;;;;;;;10.98;79.10;97087.85;107140;1246;103690;-91
2024/03/16 11:13:04;;;;;;;23.80;17.10;;;;;;;11.18;78.63;97081.83;107074;1256;101261;-89
2024/03/16 11:16:12;;;;;;;26.60;18.30;;;;;;;11.43;78.75;97082.23;106773;1249;99793;-86
2024/03/16 11:19:20;;;;;;;25.20;17.30;;;;;;;11.68;78.16;97081.13;106651;1250;99155;-86
2024/03/16 11:22:27;;;;;;;22.60;15.10;;;;;;;11.85;77.69;97077.98;106799;1250;98533;-88
2024/03/16 11:25:40;;;;;;;19.80;13.90;;;;;;;12.01;76.76;97071.59;106755;1251;101776;-77
2024/03/16 11:28:06;;;;;;;18.70;14.30;;;;;;;12.12;76.63;97069.27;106786;1250;100085;-83
2024/03/16 11:31:13;;;;;;;19.70;14.50;;;;;;;12.25;76.51;97065.67;106853;1261;98105;-86
2024/03/16 11:34:14;;;;;;;18.60;13.60;;;;;;;12.42;76.51;97061.09;106684;1251;97980;-85
2024/03/16 11:37:14;;;;;;;20.10;14.30;;;;;;;12.67;76.90;97054.63;106683;1252;98556;-86
2024/03/16 11:40:27;;;;;;;18.30;13.70;;;;;;;12.92;76.80;97054.84;106691;1259;103401;-85
2024/03/16 11:43:34;;;;;;;19.00;13.90;;;;;;;13.14;76.42;97054.59;106654;1251;100283;-80
2024/03/16 11:46:41;;;;;;;16.50;12.60;;;;;;;13.38;75.96;97052.25;106561;1258;99175;-78
2024/03/16 11:49:48;;;;;;;19.90;14.10;;;;;;;13.67;75.81;97053.84;106759;1251;98009;-80
2024/03/16 11:52:37;;;;;;;19.90;14.10;;;;;;;13.93;75.35;97053.96;106668;1251;98363;-79
2024/03/16 11:55:44;;;;;;;16.10;13.40;;;;;;;14.05;74.36;97050.09;106841;1255;102439;-79
2024/03/16 11:58:50;;;;;;;18.00;13.60;;;;;;;14.10;73.74;97044.19;107311;1249;100213;-79
2024/03/16 12:01:57;;;;;;;19.10;14.50;;;;;;;14.13;73.59;97041.20;107907;1238;100004;-77
2024/03/16 12:05:05;;;;;;;18.00;13.10;;;;;;;14.16;72.50;97038.45;107889;1243;97884;-87
2024/03/16 12:07:51;;;;;;;18.90;13.60;;;;;;;14.13;71.70;97034.91;107755;1240;99116;-86
2024/03/16 12:10:50;;;;;;;16.80;13.10;;;;;;;14.10;71.10;97028.84;107780;1250;103798;-85
2024/03/16 12:13:59;;;;;;;16.60;13.00;;;;;;;14.13;71.25;97030.08;107788;1248;100219;-87
2024/03/16 12:17:06;;;;;;;15.70;12.10;;;;;;;14.26;70.75;97024.30;107766;1248;99514;-80
2024/03/16 12:20:13;;;;;;;22.20;16.30;;;;;;;14.41;70.35;97028.67;107942;1247;97990;-79
2024/03/16 12:23:08;;;;;;;19.80;14.10;;;;;;;14.54;69.93;97027.70;107812;1243;98404;-79
2024/03/16 12:26:19;;;;;;;21.90;14.90;;;;;;;14.59;69.03;97022.70;107254;1245;102513;-81
2024/03/16 12:29:28;;;;;;;17.20;13.80;;;;;;;14.65;68.97;97020.56;107195;1244;100335;-80
2024/03/16 12:32:35;;;;;;;17.80;11.60;;;;;;;14.70;68.38;97014.68;107087;1246;98569;-76
2024/03/16 12:35:42;;;;;;;19.40;13.80;;;;;;;14.73;67.85;97014.22;107135;1242;97996;-76
2024/03/16 12:38:49;;;;;;;18.30;12.40;;;;;;;14.82;67.98;97013.98;107100;1253;98601;-86
2024/03/16 12:41:56;;;;;;;16.20;12.80;;;;;;;14.88;67.12;97011.47;107187;1241;103523;-79
2024/03/16 12:45:03;;;;;;;13.50;11.60;;;;;;;14.95;66.69;97010.08;107221;1244;100394;-85
2024/03/16 12:48:10;;;;;;;16.00;9.50;;;;;;;14.92;66.34;97013.38;107134;1255;99918;-79
2024/03/16 12:51:19;;;;;;;17.80;11.50;;;;;;;14.89;66.27;97013.92;107222;1253;98033;-79
2024/03/16 12:54:25;;;;;;;12.40;10.30;;;;;;;14.98;66.43;97007.76;107290;1255;99709;-81
2024/03/16 12:57:24;;;;;;;13.30;10.10;;;;;;;15.11;66.39;97003.77;107219;1244;102447;-83
2024/03/16 13:00:30;;;;;;;13.10;10.20;;;;;;;15.19;65.92;97003.52;107175;1254;101541;-85
2024/03/16 13:03:37;;;;;;;13.30;9.60;;;;;;;15.24;65.03;96999.66;107472;1250;99031;-85
2024/03/16 13:06:35;;;;;;;11.60;9.00;;;;;;;15.28;64.97;96999.40;107782;1248;98086;-85
2024/03/16 13:09:42;;;;;;;9.60;8.00;;;;;;;15.31;63.90;96998.91;107834;1250;97919;-85
2024/03/16 13:12:49;;;;;;;14.30;9.60;;;;;;;15.31;63.92;96995.42;107767;1249;103584;-86
2024/03/16 13:15:56;;;;;;;21.10;12.60;;;;;;;15.35;64.42;96997.37;107801;1239;101152;-86
2024/03/16 13:18:46;;;;;;;15.10;10.80;;;;;;;15.49;64.20;96992.84;107695;1247;99887;-83
2024/03/16 13:21:53;;;;;;;12.70;8.80;;;;;;;15.64;63.34;96989.08;107729;1238;97983;-85
2024/03/16 13:25:00;;;;;;;13.90;8.80;;;;;;;15.62;63.13;96988.17;107775;1241;98825;-86
2024/03/16 13:28:07;;;;;;;13.00;8.30;;;;;;;15.61;63.80;96981.41;107724;1241;111473;-86
2024/03/16 13:31:14;;;;;;;10.60;7.20;;;;;;;15.67;63.84;96977.20;107791;1250;101262;-78
2024/03/16 13:34:19;;;;;;;10.50;7.80;;;;;;;15.69;62.64;96975.27;107795;1244;98962;-77